createdAt,value
2022-12-19T00:04:15.753Z,102705.69
2022-12-19T00:09:18.911Z,102705.28
2022-12-19T00:14:38.573Z,102706.78
2022-12-19T00:19:45.916Z,102700.94
2022-12-19T00:24:58.309Z,102706.19
2022-12-19T00:30:03.067Z,102707.69
2022-12-19T00:35:13.990Z,102705.81
2022-12-19T00:40:34.221Z,102697.25
2022-12-19T00:45:38.924Z,102705.00
2022-12-19T00:50:47.333Z,102697.06
2022-12-19T00:55:52.938Z,102692.88
2022-12-19T01:00:58.765Z,102693.50
2022-12-19T01:11:55.269Z,102685.31
2022-12-19T01:17:03.818Z,102677.81
2022-12-19T01:22:13.535Z,102683.91
2022-12-19T01:27:48.996Z,102683.94
2022-12-19T01:38:23.740Z,102704.28
2022-12-19T01:43:30.885Z,102697.16
2022-12-19T01:48:44.734Z,102703.66
2022-12-19T01:53:57.193Z,102711.00
2022-12-19T01:59:11.786Z,102714.75
2022-12-19T02:09:39.152Z,102713.09
2022-12-19T02:14:48.107Z,102708.47
2022-12-19T02:20:31.877Z,102716.44
2022-12-19T02:26:11.098Z,102712.06
2022-12-19T02:31:37.153Z,102706.63
2022-12-19T02:41:14.584Z,102714.75
2022-12-19T02:46:22.917Z,102722.31
2022-12-19T02:51:34.227Z,102718.13
2022-12-19T02:57:15.587Z,102713.50
2022-12-19T03:03:12.851Z,102708.28
2022-12-19T03:08:33.812Z,102706.00
2022-12-19T03:19:24.127Z,102700.56
2022-12-19T03:24:29.595Z,102701.56
2022-12-19T03:29:50.110Z,102694.66
2022-12-19T03:35:29.374Z,102696.78
2022-12-19T03:40:36.136Z,102695.94
2022-12-19T03:46:19.567Z,102703.03
2022-12-19T03:51:59.607Z,102709.13
2022-12-19T03:57:28.045Z,102708.50
2022-12-19T04:02:38.131Z,102706.59
2022-12-19T04:07:42.978Z,102701.38
2022-12-19T04:13:30.715Z,102704.72
2022-12-19T04:18:58.643Z,102700.31
2022-12-19T04:24:18.815Z,102700.53
2022-12-19T04:34:45.593Z,102699.09
2022-12-19T04:39:50.498Z,102698.03
2022-12-19T04:50:07.601Z,102693.44
2022-12-19T04:55:12.592Z,102692.19
2022-12-19T05:07:03.435Z,102703.50
2022-12-19T05:16:44.838Z,102713.13
2022-12-19T05:21:46.760Z,102708.09
2022-12-19T05:26:49.729Z,102704.75
2022-12-19T05:32:00.581Z,102695.53
2022-12-19T05:37:07.798Z,102708.94
2022-12-19T05:42:13.444Z,102709.56
2022-12-19T05:47:15.324Z,102724.41
2022-12-19T05:52:17.202Z,102712.06
2022-12-19T05:57:40.916Z,102716.69
2022-12-19T06:02:47.785Z,102710.63
2022-12-19T06:07:53.292Z,102709.97
2022-12-19T06:12:57.394Z,102703.91
2022-12-19T06:18:00.938Z,102709.34
2022-12-19T06:23:03.738Z,102716.88
2022-12-19T06:28:12.654Z,102706.44
2022-12-19T06:33:15.834Z,102703.72
2022-12-19T06:38:24.285Z,102706.44
2022-12-19T06:43:27.653Z,102708.09
2022-12-19T06:48:30.446Z,102710.19
2022-12-19T06:53:35.470Z,102718.97
2022-12-19T06:58:39.887Z,102721.91
2022-12-19T07:03:46.796Z,102714.78
2022-12-19T07:09:16.228Z,102712.06
2022-12-19T07:14:28.504Z,102716.47
2022-12-19T07:19:37.492Z,102723.59
2022-12-19T07:24:41.745Z,102726.94
2022-12-19T07:29:44.150Z,102726.31
2022-12-19T07:34:47.869Z,102720.25
2022-12-19T07:39:52.865Z,102724.84
2022-12-19T07:44:56.170Z,102735.50
2022-12-19T07:50:04.289Z,102739.06
2022-12-19T07:55:08.644Z,102734.66
2022-12-19T08:00:16.423Z,102738.66
2022-12-19T08:05:19.219Z,102731.81
2022-12-19T08:10:28.436Z,102740.47
2022-12-19T08:15:40.319Z,102744.47
2022-12-19T08:20:47.259Z,102742.44
2022-12-19T08:26:00.970Z,102741.03
2022-12-19T08:31:12.251Z,102743.00
2022-12-19T08:36:21.660Z,102743.19
2022-12-19T08:41:27.334Z,102748.38
2022-12-19T08:46:35.014Z,102746.63
2022-12-19T08:51:45.532Z,102755.50
2022-12-19T08:56:52.493Z,102759.38
2022-12-19T09:01:56.420Z,102762.91
2022-12-19T09:07:03.156Z,102769.31
2022-12-19T09:12:07.133Z,102771.84
2022-12-19T09:17:10.326Z,102783.84
2022-12-19T09:22:13.792Z,102784.16
2022-12-19T09:27:47.419Z,102794.69
2022-12-19T09:32:58.118Z,102789.41
2022-12-19T09:38:10.303Z,102799.03
2022-12-19T09:43:33.986Z,102798.94
2022-12-19T09:48:41.505Z,102803.66
2022-12-19T09:54:00.826Z,102794.47
2022-12-19T09:59:39.883Z,102799.22
2022-12-19T10:05:05.981Z,102793.81
2022-12-19T10:12:39.648Z,102787.31
2022-12-19T10:16:32.279Z,102779.81
2022-12-19T10:22:17.632Z,102783.38
2022-12-19T10:27:57.390Z,102771.69
2022-12-19T10:33:39.136Z,102762.59
2022-12-19T10:39:03.288Z,102761.66
2022-12-19T10:44:10.361Z,102747.97
2022-12-19T10:49:23.925Z,102742.97
2022-12-19T10:54:46.753Z,102732.81
2022-12-19T11:00:16.529Z,102729.84
2022-12-19T11:05:42.753Z,102730.63
2022-12-19T11:12:43.373Z,102730.34
2022-12-19T11:22:56.152Z,102719.69
2022-12-19T11:29:26.221Z,102717.50
2022-12-19T11:30:43.173Z,102706.56
2022-12-19T11:33:16.923Z,102710.63
2022-12-19T11:38:54.531Z,102709.09
2022-12-19T11:44:07.668Z,102702.69
2022-12-19T11:49:29.039Z,102691.88
2022-12-19T11:54:44.153Z,102695.09
2022-12-19T11:59:51.438Z,102685.41
2022-12-19T12:05:27.822Z,102683.91
2022-12-19T12:15:01.755Z,102682.47
2022-12-19T12:27:10.908Z,102680.94
2022-12-19T12:31:39.146Z,102681.88
2022-12-19T12:31:46.929Z,102676.38
2022-12-19T12:35:31.528Z,102663.66
2022-12-19T12:40:37.994Z,102639.28
2022-12-19T12:45:47.845Z,102636.41
2022-12-19T12:50:55.318Z,102629.69
2022-12-19T12:56:12.588Z,102624.03
2022-12-19T13:01:30.540Z,102608.59
2022-12-19T13:06:43.704Z,102610.25
2022-12-19T13:12:37.537Z,102602.41
2022-12-19T13:18:00.743Z,102605.41
2022-12-19T13:23:06.159Z,102608.34
2022-12-19T13:28:24.883Z,102600.88
2022-12-19T13:33:46.437Z,102602.66
2022-12-19T13:40:02.200Z,102594.50
2022-12-19T13:44:24.362Z,102595.00
2022-12-19T13:49:35.567Z,102587.34
2022-12-19T13:54:52.803Z,102580.19
2022-12-19T14:00:04.353Z,102578.00
2022-12-19T14:06:18.481Z,102575.22
2022-12-19T14:11:34.803Z,102568.56
2022-12-19T14:16:39.886Z,102565.19
2022-12-19T14:22:04.468Z,102566.25
2022-12-19T14:28:17.444Z,102562.34
2022-12-19T14:33:43.502Z,102562.28
2022-12-19T14:39:19.846Z,102564.63
2022-12-19T14:52:11.722Z,102557.63
2022-12-19T14:54:12.860Z,102555.25
2022-12-19T14:56:19.577Z,102559.03
2022-12-19T15:01:12.259Z,102550.97
2022-12-19T15:07:06.812Z,102555.94
2022-12-19T15:14:46.690Z,102542.44
2022-12-19T15:17:47.225Z,102546.25
2022-12-19T15:22:54.185Z,102537.44
2022-12-19T15:27:58.059Z,102537.41
2022-12-19T15:33:04.787Z,102549.97
2022-12-19T15:38:17.479Z,102540.25
2022-12-19T15:44:01.807Z,102549.50
2022-12-19T15:48:54.650Z,102557.06
2022-12-19T15:54:38.332Z,102554.78
2022-12-19T15:59:36.555Z,102554.66
2022-12-19T16:04:40.595Z,102560.53
2022-12-19T16:09:44.249Z,102567.25
2022-12-19T16:14:56.270Z,102556.06
2022-12-19T16:19:59.999Z,102555.38
2022-12-19T16:25:03.675Z,102561.31
2022-12-19T16:30:26.822Z,102560.31
2022-12-19T16:40:57.312Z,102551.63
2022-12-19T16:46:01.967Z,102545.22
2022-12-19T16:51:06.836Z,102551.44
2022-12-19T16:56:25.125Z,102553.50
2022-12-19T17:01:33.104Z,102548.78
2022-12-19T17:06:41.344Z,102550.09
2022-12-19T17:11:49.840Z,102548.19
2022-12-19T17:17:03.072Z,102551.19
2022-12-19T17:22:13.501Z,102555.00
2022-12-19T17:27:20.678Z,102556.94
2022-12-19T17:32:33.153Z,102548.69
2022-12-19T17:37:35.934Z,102564.56
2022-12-19T17:42:41.111Z,102564.56
2022-12-19T17:47:47.174Z,102563.16
2022-12-19T17:52:56.235Z,102556.25
2022-12-19T17:58:04.024Z,102564.75
2022-12-19T18:03:21.162Z,102565.81
2022-12-19T18:08:34.780Z,102566.91
2022-12-19T18:13:40.172Z,102565.50
2022-12-19T18:18:46.157Z,102570.16
2022-12-19T18:23:53.823Z,102578.63
2022-12-19T18:29:05.322Z,102585.19
2022-12-19T18:34:24.109Z,102588.78
2022-12-19T18:39:29.668Z,102589.03
2022-12-19T18:44:32.455Z,102581.03
2022-12-19T18:49:39.950Z,102588.69
2022-12-19T19:00:01.207Z,102595.75
2022-12-19T19:05:05.734Z,102592.19
2022-12-19T19:10:42.673Z,102600.66
2022-12-19T19:16:01.748Z,102599.00
2022-12-19T19:21:09.333Z,102602.81
2022-12-19T19:26:16.387Z,102600.06
2022-12-19T19:31:24.029Z,102606.88
2022-12-19T19:36:30.677Z,102601.66
2022-12-19T19:41:42.873Z,102595.06
2022-12-19T19:46:47.448Z,102594.50
2022-12-19T19:51:50.634Z,102592.59
2022-12-19T19:56:56.588Z,102593.66
2022-12-19T20:02:04.660Z,102589.00
2022-12-19T20:07:08.131Z,102598.31
2022-12-19T20:12:18.007Z,102589.75
2022-12-19T20:17:23.600Z,102594.22
2022-12-19T20:22:30.724Z,102586.28
2022-12-19T20:27:35.140Z,102592.78
2022-12-19T20:32:42.412Z,102586.97
2022-12-19T20:37:46.259Z,102588.03
2022-12-19T20:42:52.798Z,102594.59
2022-12-19T20:48:00.717Z,102597.56
2022-12-19T20:53:06.560Z,102589.13
2022-12-19T20:58:12.513Z,102572.44
2022-12-19T21:03:31.580Z,102580.19
2022-12-19T21:08:36.401Z,102578.84
2022-12-19T21:13:41.827Z,102581.72
2022-12-19T21:18:48.051Z,102569.19
2022-12-19T21:23:52.962Z,102571.69
2022-12-19T21:29:00.519Z,102570.84
2022-12-19T21:34:05.034Z,102580.91
2022-12-19T21:39:14.195Z,102568.66
2022-12-19T21:44:20.397Z,102568.16
2022-12-19T21:49:26.111Z,102558.41
2022-12-19T21:54:31.739Z,102557.09
2022-12-19T21:59:36.470Z,102556.50
2022-12-19T22:04:44.407Z,102549.13
2022-12-19T22:09:47.723Z,102552.69
2022-12-19T22:14:55.692Z,102551.28
2022-12-19T22:20:02.005Z,102548.78
2022-12-19T22:25:07.851Z,102551.53
2022-12-19T22:30:13.449Z,102550.56
2022-12-19T22:35:19.071Z,102539.97
2022-12-19T22:40:23.646Z,102542.00
2022-12-19T22:45:26.162Z,102534.38
2022-12-19T22:50:29.963Z,102536.63
2022-12-19T22:55:34.429Z,102529.25
2022-12-19T23:00:42.725Z,102524.59
2022-12-19T23:05:58.719Z,102524.84
2022-12-19T23:11:02.300Z,102517.47
2022-12-19T23:16:11.050Z,102518.78
2022-12-19T23:21:28.615Z,102504.50
2022-12-19T23:26:43.699Z,102496.53
2022-12-19T23:31:48.350Z,102498.69
2022-12-19T23:42:21.064Z,102490.94
2022-12-19T23:47:24.259Z,102492.50
2022-12-19T23:52:31.772Z,102492.97
2022-12-19T23:57:40.612Z,102484.19
